createdAt,value
2022-10-15T00:02:08.244Z,99453.94
2022-10-15T00:05:10.378Z,99448.56
2022-10-15T00:08:13.248Z,99456.31
2022-10-15T00:11:24.077Z,99458.72
2022-10-15T00:14:26.317Z,99461.19
2022-10-15T00:17:28.446Z,99456.78
2022-10-15T00:20:31.682Z,99453.97
2022-10-15T00:23:34.016Z,99453.22
2022-10-15T00:26:36.178Z,99456.44
2022-10-15T00:29:38.313Z,99452.87
2022-10-15T00:32:40.504Z,99440.41
2022-10-15T00:35:42.644Z,99444.87
2022-10-15T00:38:44.964Z,99453.34
2022-10-15T00:41:47.208Z,99453.69
2022-10-15T00:44:58.070Z,99447.97
2022-10-15T00:48:00.229Z,99445.91
2022-10-15T00:51:04.439Z,99435.75
2022-10-15T00:54:06.717Z,99440.19
2022-10-15T00:57:09.800Z,99431.34
2022-10-15T01:00:15.285Z,99426.03
2022-10-15T01:03:17.483Z,99431.06
2022-10-15T01:06:19.713Z,99421.41
2022-10-15T01:09:22.133Z,99423.25
2022-10-15T01:12:33.272Z,99420.41
2022-10-15T01:15:45.495Z,99420.25
2022-10-15T01:18:57.715Z,99422.09
2022-10-15T01:22:06.821Z,99419.19
2022-10-15T01:25:15.020Z,99414.13
2022-10-15T01:28:41.456Z,99416.59
2022-10-15T01:31:49.424Z,99418.62
2022-10-15T01:34:51.529Z,99422.09
2022-10-15T01:38:07.464Z,99422.53
2022-10-15T01:41:13.960Z,99423.72
2022-10-15T01:44:20.720Z,99425.16
2022-10-15T01:47:44.520Z,99419.25
2022-10-15T01:50:49.393Z,99410.53
2022-10-15T01:53:52.469Z,99411.91
2022-10-15T01:56:55.282Z,99418.62
2022-10-15T01:59:57.809Z,99409.03
2022-10-15T02:03:04.429Z,99397.84
2022-10-15T02:06:09.908Z,99392.94
2022-10-15T02:09:34.083Z,99392.00
2022-10-15T02:12:36.186Z,99398.69
2022-10-15T02:16:06.147Z,99398.69
2022-10-15T02:19:12.392Z,99391.75
2022-10-15T02:22:30.527Z,99404.06
2022-10-15T02:25:33.701Z,99410.00
2022-10-15T02:28:37.373Z,99402.22
2022-10-15T02:31:42.180Z,99404.69
2022-10-15T02:34:45.205Z,99397.38
2022-10-15T02:37:50.431Z,99393.50
2022-10-15T02:40:53.208Z,99391.09
2022-10-15T02:43:55.361Z,99393.47
2022-10-15T02:46:59.067Z,99392.56
2022-10-15T02:50:01.208Z,99399.34
2022-10-15T02:53:03.806Z,99404.88
2022-10-15T02:56:06.077Z,99396.16
2022-10-15T02:59:08.251Z,99388.00
2022-10-15T03:02:14.047Z,99386.63
2022-10-15T03:05:19.131Z,99394.09
2022-10-15T03:08:21.362Z,99387.16
2022-10-15T03:11:23.524Z,99382.88
2022-10-15T03:14:25.765Z,99382.47
2022-10-15T03:17:27.966Z,99382.97
2022-10-15T03:20:30.220Z,99380.12
2022-10-15T03:26:35.701Z,99386.25
2022-10-15T03:29:37.849Z,99374.84
2022-10-15T03:32:40.107Z,99386.97
2022-10-15T03:35:42.452Z,99384.69
2022-10-15T03:38:44.592Z,99384.06
2022-10-15T03:41:46.794Z,99383.06
2022-10-15T03:44:48.938Z,99383.69
2022-10-15T03:47:51.294Z,99387.34
2022-10-15T03:50:53.440Z,99388.91
2022-10-15T03:53:55.581Z,99384.41
2022-10-15T03:56:58.058Z,99385.06
2022-10-15T04:00:00.224Z,99392.44
2022-10-15T04:03:02.386Z,99388.28
2022-10-15T04:06:04.751Z,99385.25
2022-10-15T04:09:07.076Z,99382.59
2022-10-15T04:12:09.218Z,99389.47
2022-10-15T04:15:11.469Z,99395.22
2022-10-15T04:18:14.043Z,99386.63
2022-10-15T04:21:16.190Z,99383.28
2022-10-15T04:24:18.338Z,99379.81
2022-10-15T04:27:20.519Z,99382.47
2022-10-15T04:30:22.674Z,99377.47
2022-10-15T04:33:25.348Z,99368.53
2022-10-15T04:36:27.558Z,99376.84
2022-10-15T04:39:29.695Z,99365.06
2022-10-15T04:42:31.952Z,99371.28
2022-10-15T04:45:34.086Z,99378.47
2022-10-15T04:48:40.406Z,99380.97
2022-10-15T04:51:45.554Z,99388.00
2022-10-15T04:54:47.731Z,99397.78
2022-10-15T04:57:49.891Z,99380.72
2022-10-15T05:00:52.085Z,99381.25
2022-10-15T05:03:54.235Z,99374.44
2022-10-15T05:06:56.452Z,99375.59
2022-10-15T05:09:58.718Z,99381.28
2022-10-15T05:13:00.855Z,99373.31
2022-10-15T05:16:15.949Z,99366.56
2022-10-15T05:19:18.195Z,99383.22
2022-10-15T05:22:20.522Z,99389.75
2022-10-15T05:25:22.796Z,99398.13
2022-10-15T05:28:24.958Z,99393.25
2022-10-15T05:31:29.620Z,99390.56
2022-10-15T05:34:32.016Z,99396.31
2022-10-15T05:37:34.191Z,99391.09
2022-10-15T05:40:36.322Z,99386.00
2022-10-15T05:43:41.170Z,99383.41
2022-10-15T05:46:43.741Z,99393.47
2022-10-15T05:49:45.877Z,99388.00
2022-10-15T05:52:48.233Z,99381.66
2022-10-15T05:55:53.306Z,99381.47
2022-10-15T05:58:55.873Z,99398.41
2022-10-15T06:01:58.032Z,99401.50
2022-10-15T06:05:00.321Z,99406.75
2022-10-15T06:08:02.483Z,99409.66
2022-10-15T06:11:08.372Z,99416.19
2022-10-15T06:14:11.738Z,99414.16
2022-10-15T06:17:13.890Z,99421.56
2022-10-15T06:20:16.099Z,99419.16
2022-10-15T06:23:18.344Z,99427.75
2022-10-15T06:26:20.495Z,99426.75
2022-10-15T06:29:22.724Z,99434.31
2022-10-15T06:32:24.932Z,99427.53
2022-10-15T06:35:30.311Z,99434.28
2022-10-15T06:38:32.947Z,99431.41
2022-10-15T06:41:35.232Z,99434.47
2022-10-15T06:44:37.357Z,99435.47
2022-10-15T06:47:42.520Z,99439.56
2022-10-15T06:50:44.693Z,99440.53
2022-10-15T06:53:46.874Z,99440.91
2022-10-15T06:56:49.067Z,99443.50
2022-10-15T06:59:51.785Z,99446.91
2022-10-15T07:02:54.301Z,99446.78
2022-10-15T07:05:56.666Z,99449.81
2022-10-15T07:09:01.964Z,99455.69
2022-10-15T07:12:04.789Z,99457.91
2022-10-15T07:15:07.495Z,99453.13
2022-10-15T07:18:09.642Z,99457.25
2022-10-15T07:21:11.876Z,99460.63
2022-10-15T07:24:14.152Z,99462.53
2022-10-15T07:27:19.058Z,99464.31
2022-10-15T07:30:23.077Z,99463.78
2022-10-15T07:33:25.299Z,99469.78
2022-10-15T07:36:27.605Z,99473.81
2022-10-15T07:39:29.785Z,99469.50
2022-10-15T07:42:31.930Z,99469.22
2022-10-15T07:45:34.155Z,99469.44
2022-10-15T07:48:36.406Z,99468.06
2022-10-15T07:51:38.623Z,99460.91
2022-10-15T07:54:40.765Z,99464.78
2022-10-15T07:57:42.974Z,99463.88
2022-10-15T08:00:45.599Z,99460.75
2022-10-15T08:03:48.072Z,99460.59
2022-10-15T08:06:50.312Z,99469.72
2022-10-15T08:09:52.483Z,99469.78
2022-10-15T08:12:54.691Z,99469.53
2022-10-15T08:16:00.114Z,99470.22
2022-10-15T08:19:02.666Z,99467.28
2022-10-15T08:22:05.626Z,99472.19
2022-10-15T08:25:08.274Z,99482.37
2022-10-15T08:28:10.866Z,99483.91
2022-10-15T08:31:13.831Z,99488.34
2022-10-15T08:34:16.001Z,99481.84
2022-10-15T08:37:18.147Z,99494.50
2022-10-15T08:40:22.432Z,99496.00
2022-10-15T08:43:34.835Z,99480.06
2022-10-15T08:46:45.982Z,99476.00
2022-10-15T08:49:53.942Z,99477.22
2022-10-15T08:52:57.340Z,99475.22
2022-10-15T08:56:04.432Z,99478.84
2022-10-15T08:59:33.186Z,99477.75
2022-10-15T09:03:24.434Z,99486.06
2022-10-15T09:06:31.101Z,99476.94
2022-10-15T09:09:52.163Z,99488.34
2022-10-15T09:13:16.459Z,99496.16
2022-10-15T09:16:22.983Z,99489.44
2022-10-15T09:19:26.312Z,99500.44
2022-10-15T09:22:31.282Z,99491.56
2022-10-15T09:25:37.154Z,99483.66
2022-10-15T09:29:04.099Z,99494.41
2022-10-15T09:32:23.678Z,99483.78
2022-10-15T09:35:30.533Z,99489.72
2022-10-15T09:38:41.959Z,99491.22
2022-10-15T09:41:47.074Z,99494.28
2022-10-15T09:44:49.447Z,99506.84
2022-10-15T09:47:52.634Z,99510.25
2022-10-15T09:51:07.450Z,99507.91
2022-10-15T09:55:04.090Z,99507.69
2022-10-15T09:58:19.230Z,99509.41
2022-10-15T10:01:23.389Z,99500.59
2022-10-15T10:04:33.904Z,99489.09
2022-10-15T10:07:38.248Z,99493.75
2022-10-15T10:10:43.035Z,99483.50
2022-10-15T10:13:48.173Z,99488.56
2022-10-15T10:17:04.760Z,99481.38
2022-10-15T10:20:09.662Z,99483.47
2022-10-15T10:23:23.191Z,99483.03
2022-10-15T10:26:25.477Z,99478.41
2022-10-15T10:29:36.547Z,99480.75
2022-10-15T10:32:38.887Z,99473.75
2022-10-15T10:35:47.380Z,99471.28
2022-10-15T10:39:14.754Z,99471.78
2022-10-15T10:42:16.838Z,99459.81
2022-10-15T10:45:24.050Z,99454.28
2022-10-15T10:48:29.455Z,99459.16
2022-10-15T10:51:31.899Z,99457.63
2022-10-15T10:54:34.354Z,99450.84
2022-10-15T10:57:52.769Z,99454.63
2022-10-15T11:00:55.768Z,99449.66
2022-10-15T11:03:58.097Z,99442.81
2022-10-15T11:07:17.308Z,99435.56
2022-10-15T11:10:30.073Z,99438.47
2022-10-15T11:13:40.121Z,99429.81
2022-10-15T11:16:54.131Z,99433.72
2022-10-15T11:20:26.754Z,99436.47
2022-10-15T11:23:36.827Z,99437.22
2022-10-15T11:27:18.537Z,99437.78
2022-10-15T11:30:32.653Z,99432.47
2022-10-15T11:33:59.117Z,99416.63
2022-10-15T11:37:13.159Z,99418.41
2022-10-15T11:40:37.027Z,99408.63
2022-10-15T11:43:57.886Z,99399.87
2022-10-15T11:47:27.361Z,99401.19
2022-10-15T11:51:08.861Z,99393.13
2022-10-15T11:54:29.458Z,99397.06
2022-10-15T11:57:33.065Z,99390.94
2022-10-15T12:00:39.953Z,99388.63
2022-10-15T12:04:04.323Z,99386.28
2022-10-15T12:07:08.183Z,99379.62
2022-10-15T12:10:13.344Z,99382.88
2022-10-15T12:13:39.260Z,99386.63
2022-10-15T12:16:45.059Z,99383.44
2022-10-15T12:20:07.371Z,99387.28
2022-10-15T12:23:24.193Z,99386.22
2022-10-15T12:26:28.981Z,99382.88
2022-10-15T12:29:31.268Z,99377.28
2022-10-15T12:32:47.743Z,99379.44
2022-10-15T12:35:55.193Z,99372.97
2022-10-15T12:39:05.918Z,99359.63
2022-10-15T12:42:27.509Z,99365.34
2022-10-15T12:45:40.289Z,99369.37
2022-10-15T12:48:45.086Z,99367.44
2022-10-15T12:51:47.252Z,99365.56
2022-10-15T12:54:51.848Z,99364.81
2022-10-15T12:57:55.977Z,99358.34
2022-10-15T13:00:58.214Z,99357.91
2022-10-15T13:04:00.619Z,99356.56
2022-10-15T13:07:04.057Z,99357.56
2022-10-15T13:10:18.633Z,99367.84
2022-10-15T13:13:25.332Z,99361.41
2022-10-15T13:16:27.679Z,99373.84
2022-10-15T13:19:40.319Z,99366.53
2022-10-15T13:22:42.498Z,99373.53
2022-10-15T13:25:45.103Z,99373.59
2022-10-15T13:28:49.966Z,99362.84
2022-10-15T13:31:54.865Z,99372.06
2022-10-15T13:34:57.624Z,99373.12
2022-10-15T13:38:00.333Z,99366.69
2022-10-15T13:41:02.487Z,99367.09
2022-10-15T13:44:04.987Z,99372.31
2022-10-15T13:47:41.239Z,99377.69
2022-10-15T13:50:43.513Z,99382.34
2022-10-15T13:53:45.671Z,99383.31
2022-10-15T13:56:58.921Z,99387.00
2022-10-15T14:00:01.083Z,99378.03
2022-10-15T14:03:19.880Z,99380.41
2022-10-15T14:06:29.265Z,99380.16
2022-10-15T14:09:32.324Z,99379.22
2022-10-15T14:12:34.486Z,99383.03
2022-10-15T14:15:41.715Z,99382.94
2022-10-15T14:18:49.025Z,99383.66
2022-10-15T14:21:52.434Z,99378.97
2022-10-15T14:24:56.051Z,99371.22
2022-10-15T14:27:58.311Z,99354.28
2022-10-15T14:31:01.402Z,99363.03
2022-10-15T14:34:04.050Z,99362.16
2022-10-15T14:37:40.301Z,99353.13
2022-10-15T14:40:57.866Z,99357.19
2022-10-15T14:44:20.218Z,99354.66
2022-10-15T14:47:32.758Z,99360.47
2022-10-15T14:50:36.679Z,99363.41
2022-10-15T14:53:44.635Z,99358.66
2022-10-15T14:56:46.824Z,99354.59
2022-10-15T14:59:52.856Z,99357.34
2022-10-15T15:02:56.947Z,99350.84
2022-10-15T15:05:59.153Z,99358.25
2022-10-15T15:09:01.371Z,99352.72
2022-10-15T15:12:03.744Z,99361.13
2022-10-15T15:15:14.155Z,99361.97
2022-10-15T15:18:17.665Z,99368.84
2022-10-15T15:21:23.903Z,99369.91
2022-10-15T15:24:26.107Z,99373.53
2022-10-15T15:27:30.946Z,99364.38
2022-10-15T15:30:34.631Z,99369.53
2022-10-15T15:33:36.802Z,99364.19
2022-10-15T15:36:39.184Z,99367.34
2022-10-15T15:39:41.372Z,99370.28
2022-10-15T15:42:44.228Z,99373.12
2022-10-15T15:45:46.930Z,99376.37
2022-10-15T15:48:49.088Z,99378.00
2022-10-15T15:51:51.293Z,99371.81
2022-10-15T15:54:53.442Z,99366.13
2022-10-15T15:57:55.791Z,99360.34
2022-10-15T16:00:58.053Z,99370.28
2022-10-15T16:04:00.216Z,99374.09
2022-10-15T16:07:02.349Z,99377.66
2022-10-15T16:10:06.381Z,99380.50
2022-10-15T16:13:08.517Z,99397.31
2022-10-15T16:16:11.134Z,99400.34
2022-10-15T16:19:13.329Z,99405.94
2022-10-15T16:22:16.077Z,99403.50
2022-10-15T16:25:19.194Z,99409.44
2022-10-15T16:28:21.364Z,99420.25
2022-10-15T16:31:29.568Z,99419.50
2022-10-15T16:34:32.664Z,99420.16
2022-10-15T16:37:35.182Z,99424.38
2022-10-15T16:40:38.645Z,99423.78
2022-10-15T16:43:40.831Z,99432.44
2022-10-15T16:46:43.551Z,99429.41
2022-10-15T16:49:45.727Z,99429.50
2022-10-15T16:52:47.901Z,99432.13
2022-10-15T16:55:50.056Z,99436.19
2022-10-15T16:58:52.483Z,99441.53
2022-10-15T17:01:54.800Z,99452.37
2022-10-15T17:04:57.060Z,99450.28
2022-10-15T17:07:59.222Z,99447.16
2022-10-15T17:11:01.646Z,99451.91
2022-10-15T17:14:08.981Z,99446.09
2022-10-15T17:17:11.101Z,99450.88
2022-10-15T17:20:13.237Z,99451.09
2022-10-15T17:23:16.189Z,99459.84
2022-10-15T17:26:24.351Z,99463.78
2022-10-15T17:29:30.580Z,99458.19
2022-10-15T17:32:35.586Z,99459.16
2022-10-15T17:35:37.856Z,99462.28
2022-10-15T17:38:40.124Z,99471.03
2022-10-15T17:41:42.327Z,99480.25
2022-10-15T17:44:44.504Z,99478.84
2022-10-15T17:47:46.667Z,99485.97
2022-10-15T17:50:48.799Z,99485.03
2022-10-15T17:53:52.229Z,99487.22
2022-10-15T17:56:54.401Z,99488.28
2022-10-15T17:59:56.541Z,99490.63
2022-10-15T18:02:58.819Z,99500.28
2022-10-15T18:06:07.936Z,99494.69
2022-10-15T18:09:10.074Z,99489.69
2022-10-15T18:12:12.308Z,99494.69
2022-10-15T18:15:14.486Z,99497.72
2022-10-15T18:18:17.735Z,99502.25
2022-10-15T18:21:21.326Z,99503.56
2022-10-15T18:24:24.263Z,99512.41
2022-10-15T18:27:26.669Z,99508.16
2022-10-15T18:30:29.134Z,99518.19
2022-10-15T18:33:31.973Z,99517.16
2022-10-15T18:36:34.214Z,99522.13
2022-10-15T18:39:36.436Z,99524.44
2022-10-15T18:42:38.668Z,99521.66
2022-10-15T18:45:40.909Z,99521.09
2022-10-15T18:48:43.063Z,99509.34
2022-10-15T18:51:46.537Z,99515.75
2022-10-15T18:54:48.770Z,99508.53
2022-10-15T18:57:50.896Z,99506.28
2022-10-15T19:00:53.025Z,99501.69
2022-10-15T19:03:56.588Z,99499.25
2022-10-15T19:07:02.251Z,99497.91
2022-10-15T19:10:04.784Z,99496.16
2022-10-15T19:13:06.956Z,99503.59
2022-10-15T19:16:09.292Z,99500.22
2022-10-15T19:19:16.149Z,99493.47
2022-10-15T19:22:18.331Z,99506.25
2022-10-15T19:25:20.448Z,99521.03
2022-10-15T19:28:22.580Z,99525.91
2022-10-15T19:31:37.139Z,99531.13
2022-10-15T19:34:39.319Z,99537.56
2022-10-15T19:37:41.499Z,99534.28
2022-10-15T19:40:45.970Z,99537.06
2022-10-15T19:43:50.983Z,99539.81
2022-10-15T19:46:54.506Z,99544.88
2022-10-15T19:49:56.698Z,99547.19
2022-10-15T19:52:58.883Z,99552.84
2022-10-15T19:56:09.142Z,99556.84
2022-10-15T19:59:11.494Z,99562.66
2022-10-15T20:02:13.742Z,99558.84
2022-10-15T20:05:16.485Z,99565.94
2022-10-15T20:08:18.953Z,99561.22
2022-10-15T20:11:21.204Z,99555.56
2022-10-15T20:14:23.493Z,99556.91
2022-10-15T20:17:25.940Z,99555.84
2022-10-15T20:20:28.302Z,99565.38
2022-10-15T20:23:30.445Z,99573.50
2022-10-15T20:26:32.779Z,99569.31
2022-10-15T20:29:34.969Z,99578.62
2022-10-15T20:32:37.493Z,99583.97
2022-10-15T20:35:40.719Z,99577.94
2022-10-15T20:38:43.568Z,99590.72
2022-10-15T20:41:45.890Z,99594.12
2022-10-15T20:44:48.120Z,99594.94
2022-10-15T20:47:51.450Z,99593.25
2022-10-15T20:50:55.486Z,99601.56
2022-10-15T20:53:58.698Z,99608.94
2022-10-15T20:57:00.910Z,99604.31
2022-10-15T21:00:05.830Z,99606.72
2022-10-15T21:03:07.983Z,99604.41
2022-10-15T21:06:10.195Z,99608.88
2022-10-15T21:09:12.671Z,99600.34
2022-10-15T21:12:14.803Z,99603.06
2022-10-15T21:15:17.442Z,99605.72
2022-10-15T21:18:19.590Z,99606.34
2022-10-15T21:21:21.803Z,99618.13
2022-10-15T21:24:27.956Z,99615.41
2022-10-15T21:27:30.091Z,99618.91
2022-10-15T21:30:32.305Z,99615.47
2022-10-15T21:33:36.066Z,99612.53
2022-10-15T21:36:38.222Z,99611.06
2022-10-15T21:39:40.526Z,99609.44
2022-10-15T21:42:42.736Z,99613.66
2022-10-15T21:45:44.936Z,99613.34
2022-10-15T21:48:47.288Z,99611.94
2022-10-15T21:51:49.513Z,99616.50
2022-10-15T21:54:51.676Z,99612.69
2022-10-15T21:57:54.013Z,99622.03
2022-10-15T22:00:56.344Z,99624.91
2022-10-15T22:04:07.101Z,99631.06
2022-10-15T22:07:09.817Z,99635.00
2022-10-15T22:10:12.308Z,99632.63
2022-10-15T22:13:14.415Z,99635.87
2022-10-15T22:16:17.635Z,99630.53
2022-10-15T22:19:19.889Z,99627.87
2022-10-15T22:22:22.209Z,99635.81
2022-10-15T22:25:24.659Z,99643.44
2022-10-15T22:28:26.943Z,99635.00
2022-10-15T22:31:29.400Z,99638.72
2022-10-15T22:34:31.562Z,99645.06
2022-10-15T22:37:33.742Z,99642.97
2022-10-15T22:40:35.849Z,99647.78
2022-10-15T22:43:38.133Z,99649.84
2022-10-15T22:46:41.122Z,99642.53
2022-10-15T22:49:43.319Z,99651.03
2022-10-15T22:52:45.451Z,99653.94
2022-10-15T22:56:15.069Z,99654.44
2022-10-15T22:59:17.678Z,99662.03
2022-10-15T23:02:22.718Z,99662.31
2022-10-15T23:05:25.061Z,99661.56
2022-10-15T23:08:27.253Z,99670.84
2022-10-15T23:11:32.074Z,99665.81
2022-10-15T23:14:34.255Z,99671.88
2022-10-15T23:17:37.252Z,99672.34
2022-10-15T23:20:39.385Z,99671.28
2022-10-15T23:23:42.671Z,99673.97
2022-10-15T23:26:45.010Z,99672.94
2022-10-15T23:29:53.458Z,99676.50
2022-10-15T23:33:04.144Z,99679.47
2022-10-15T23:36:06.326Z,99681.59
2022-10-15T23:39:08.734Z,99682.63
2022-10-15T23:42:10.870Z,99684.12
2022-10-15T23:45:13.003Z,99678.16
2022-10-15T23:48:15.219Z,99693.16
2022-10-15T23:51:22.801Z,99696.87
2022-10-15T23:54:24.989Z,99699.13
2022-10-15T23:57:27.592Z,99706.31
